Archival Weather

Norman Y Mineta San Jose Intl

San Jose, California (KSJC)

Report from: Wednesday, February 7, 2024 7:53 PM PST
Current time: Monday, June 24, 2024 4:11 AM PDT

Current weather – Weather history – Daily summaries
Weather forecast

Temperature9.4°C (48.9°F)
Wind chill7.2°C (45.0°F)
Dew point3.3°C (37.9°F)
Winds 8 kts (4.1 m/s, 9.2 mph) West (280°)
Visibility10 mi. (16.1 km)
Clouds Few clouds 6,500 ft. (1,981 m)
Ceiling: Broken clouds 12,000 ft. (3,658 m)
Altimeter29.80 in.Hg (1009 mB)
Relative humidity66 %
Density altitude-414 ft. (-126 m)
Sea-level pressure100.9 kPa (1009 mB, 29.80 in.Hg)
Remarks Automated weather observing station with precipitation discriminator
Flight conditions Visual Meteorological Conditions
Raw dataKSJC 080353Z 28008KT 10SM FEW065 BKN120 09/03 A2980 RMK AO2 SLP091 T00940033
An error has occurred. This application may no longer respond until reloaded. Reload 🗙